x

North Michigan- Halfway Between North Manitou And Washington Islands. (45002) Wave Buoy

9:50pm - Fri 24th Oct 2014 All times are CDT. -5 hours from GMT.

  • Sig Wave height 3.9ft
  • Swell Direction
  • Peak Period 5s
  • Average Period 4s
  • Wind
    22mph, 29mph gusts
  • Sea Temp 51°f
  • Air Temp 49°f
  • Sea Pressure 1010.8mb
  • North Michigan- Halfway Between North Manitou And Washington Islands.
  • North Michigan- Halfway Between North Manitou And Washington Islands.

More Historic Weather Station data

Upgrade to MSW Pro to gain access to the past 30 days of data for over 8000 Wavebouys and Weather Stations around the globe.

Join Pro

Comparision Forecast

View Surf forecast
   
Fri 10/24 9:50pm 4ft 5s 4s 22 29 mph 1010.8mb 51f 49f
8:50pm 3.5ft 5s 4s 25 29 mph 1011mb 51f 49f
7:50pm 3ft 4s 4s 20 27 mph 1011.9mb 51f 49f
6:50pm 3ft 4s 4s 18 22 mph 1012.7mb 51f 49f
5:50pm 2.5ft 4s 4s 18 20 mph 1012.9mb 51f 49f
4:50pm 2.5ft 4s 3s 18 20 mph 1013.1mb 51f 49f
3:50pm 2ft 3s 3s 18 22 mph 1013.1mb 51f 49f
2:50pm 1.6ft 3s 3s 18 20 mph 1013.2mb 51f 50f
1:50pm 1.3ft 5s 3s 13 18 mph 1014mb 51f 50f
12:50pm 1.3ft 5s 3s 13 16 mph 1014.6mb 51f 50f
11:50am 1.3ft 5s 3s 13 16 mph 1015.4mb 51f 50f
10:50am 1.3ft 5s 4s 11 13 mph 1016mb 51f 50f
9:50am 1.6ft 5s 4s 9 11 mph 1015.9mb 51f 50f
8:50am 1.6ft 5s 4s 11
mph
1016.3mb 51f 50f
7:50am 1.6ft 5s 4s 9 11 mph 1016.2mb 51f 50f
6:50am 2ft 5s 4s 9
mph
1015.9mb 51f 50f
5:50am 2ft 5s 4s 7 9 mph 1016.1mb 51f 50f
4:50am 2.5ft 5s 4s 7 9 mph 1016.1mb 51f 50f
3:50am 2.5ft 5s 4s 9 11 mph 1016.2mb 51f 51f
2:50am 2.5ft 5s 4s 11 13 mph 1016.3mb 51f 51f
1:50am 3ft 5s 4s 13 16 mph 1016.3mb 51f 51f
12:50am 3ft 5s 4s 16 18 mph 1016.2mb 51f 51f
Thu 10/23 11:50pm 3.5ft 5s 4s 13 16 mph 1016.6mb 51f 51f
10:50pm 3.5ft 5s 4s 16 20 mph 1017mb 51f 51f
9:50pm 3ft 5s 4s 18 20 mph 1017.5mb 51f 51f
8:50pm 3.5ft 5s 4s 20 22 mph 1017.6mb 51f 51f
7:50pm 3.5ft 5s 4s 20 27 mph 1017.5mb 51f 51f
6:50pm 3ft 5s 4s 18 22 mph 1017.9mb 51f 51f
5:50pm 3.5ft 5s 4s 20 25 mph 1017.7mb 51f 51f
4:50pm 3.5ft 5s 4s 20 22 mph 1017.8mb 51f 51f
3:50pm 3.5ft 5s 4s 18 20 mph 1018.6mb 51f 51f
2:50pm 3.5ft 5s 4s 20 22 mph 1018.9mb 51f 50f
1:50pm 3ft 5s 4s 18 22 mph 1019.9mb 51f 50f
12:50pm 3ft 5s 4s 18 22 mph 1020.2mb 51f 49f
11:50am 3ft 5s 4s 18 20 mph 1021mb 51f 49f
10:50am 3ft 5s 4s 18 22 mph 1021.5mb 51f 48f
9:50am 3.5ft 5s 4s 18 22 mph 1021.9mb 51f 48f
8:50am 3ft 5s 4s 18 20 mph 1022.1mb 51f 48f
7:50am 3ft 5s 4s 18 20 mph 1022.2mb 51f 48f
6:50am 3.5ft 4s 4s 16 20 mph 1022.5mb 51f 48f
5:50am 3ft 4s 4s 18 22 mph 1022.8mb 51f 47f
4:50am 2.5ft 4s 3s 18 22 mph 1022.9mb 51f 47f
3:50am 2ft 3s 3s 18 22 mph 1023.1mb 51f 47f
2:50am 1.3ft 3s 3s 16 20 mph 1023.6mb 51f 47f
1:50am 1ft 3s 3s 13 16 mph 1024mb 51f 47f
12:50am 0.7ft  -  3s 11 13 mph 1024.6mb 51f 47f
Wed 10/22 11:50pm 0.7ft  -  3s 11
mph
1025.1mb 51f 47f
10:50pm 0.7ft  -  2s 11 13 mph 1025.3mb 51f 47f
9:50pm 0.3ft  -  2s 11 13 mph 1025.7mb 51f 46f
8:50pm 0.3ft  -  3s 11 13 mph 1025.7mb 51f 45f
7:50pm 0.3ft  -  3s 9 11 mph 1025.9mb 51f 45f
6:50pm 0.3ft  -  3s 7 9 mph 1026.2mb 51f 44f
5:50pm 0.3ft  -  3s 7 9 mph 1026.4mb 51f 43f
4:50pm 0.7ft  -  3s 7 9 mph 1027.1mb 51f 42f
3:50pm 0.7ft  -  3s 7 9 mph 1027.7mb 52f 42f
2:50pm 0.7ft  -  3s 4
mph
1028.4mb 52f 42f
1:50pm 0.7ft  -  3s 4 7 mph 1029mb 51f 43f
12:50pm 0.7ft  -  3s 7 9 mph 1029.5mb 51f 42f
11:50am 0.7ft  -  3s 7 9 mph 1030.1mb 51f 42f
10:50am 0.7ft  -  3s 11 13 mph 1030.1mb 51f 43f
9:50am 0.7ft  -  3s 9 13 mph 1030mb 51f 43f
8:50am 0.7ft  -  3s 7 9 mph 1029.9mb 51f 44f
7:50am 1ft 3s 3s 7 9 mph 1029.6mb 51f 44f
6:50am 0.7ft  -  3s 4 7 mph 1029mb 51f 43f
5:50am 1ft 3s 3s 7 9 mph 1028.7mb 51f 44f
4:50am 1ft 3s 3s 7 11 mph 1028.3mb 51f 44f
3:50am 1.3ft 3s 3s 7 9 mph 1028mb 51f 45f
2:50am 1.3ft 4s 3s 9 11 mph 1027.6mb 51f 45f
1:50am 1.6ft 4s 3s 11
mph
1027mb 51f 46f
12:50am 2ft 4s 4s 11 13 mph 1026.7mb 51f 46f
Tue 10/21 11:50pm 2ft 4s 3s 11 13 mph 1026.6mb 51f 46f
10:50pm 2ft 4s 3s 11 16 mph 1026.5mb 51f 46f
9:50pm 2ft 4s 3s 13 16 mph 1026.5mb 51f 45f
8:50pm 1.6ft 4s 3s 13 16 mph 1025.9mb 51f 46f
7:50pm 1.3ft 3s 3s 16 18 mph 1025.3mb 51f 47f
6:50pm 1ft 3s 3s 13 16 mph 1025mb 51f 48f
5:50pm 1ft 4s 3s 11 13 mph 1024.6mb 51f 48f
4:50pm 1.3ft 3s 3s 9 11 mph 1024.1mb 51f 47f
3:50pm 1.6ft 4s 3s 11 16 mph 1023.7mb 51f 47f
2:50pm 2ft 4s 3s 16 18 mph 1023.5mb 51f 46f
1:50pm 2.5ft 5s 4s 13 18 mph 1023.6mb 51f 46f
12:50pm 2.5ft 5s 4s 13 18 mph 1023.8mb 51f 44f
11:50am 3ft 5s 4s 16 18 mph 1023.8mb 51f 44f
10:50am 3.5ft 5s 4s 18 22 mph 1023.5mb 51f 44f
9:50am 4ft 5s 4s 18 25 mph 1022.7mb 51f 44f
8:50am 3.5ft 5s 4s 20 25 mph 1022.1mb 51f 44f
7:50am 4.5ft 5s 4s 22 27 mph 1021.1mb 51f 45f
6:50am 4ft 5s 4s 22 27 mph 1020.2mb 51f 46f
5:50am 4.5ft 5s 4s 22 27 mph 1019.2mb 51f 46f
4:50am 4ft 5s 4s 25 27 mph 1018.1mb 51f 46f